Time;durP1;ratioP1;P1;durP2;ratioP2;P2;SDS_P1;SDS_P2;PMS_P1;PMS_P2;Temp;Humidity;BMP_temperature;BMP_pressure;BME280_temperature;BME280_humidity;BME280_pressure;Samples;Min_cycle;Max_cycle;Signal;HPM_P1;HPM_P2
2021/05/16 00:00:29;;;;;;;6.53;1.13;;;;;;;8.38;100.00;95366.69;5078033;28;20228;-70
2021/05/16 00:02:55;;;;;;;1.83;0.90;;;;;;;8.42;100.00;95364.53;5077253;28;20231;-70
2021/05/16 00:05:23;;;;;;;4.77;1.10;;;;;;;8.39;100.00;95370.13;5076275;28;20228;-70
2021/05/16 00:07:49;;;;;;;2.50;1.23;;;;;;;8.31;100.00;95370.25;5077556;28;20204;-70
2021/05/16 00:10:16;;;;;;;3.03;1.17;;;;;;;8.30;100.00;95363.34;5077803;28;20219;-70
2021/05/16 00:12:43;;;;;;;3.77;1.27;;;;;;;8.35;100.00;95366.25;5076676;28;20222;-70
2021/05/16 00:15:12;;;;;;;2.20;1.20;;;;;;;8.34;100.00;95367.22;5076849;28;20203;-71
2021/05/16 00:17:39;;;;;;;2.53;1.10;;;;;;;8.39;100.00;95362.25;5077182;28;20200;-71
2021/05/16 00:20:09;;;;;;;4.30;1.13;;;;;;;8.40;100.00;95374.38;5076847;28;20214;-71
2021/05/16 00:22:36;;;;;;;2.73;1.30;;;;;;;8.36;100.00;95367.88;5076763;28;20203;-70
2021/05/16 00:25:03;;;;;;;3.03;1.43;;;;;;;8.41;100.00;95371.56;5076618;28;20224;-70
2021/05/16 00:27:29;;;;;;;2.57;1.40;;;;;;;8.36;100.00;95378.38;5076917;28;20203;-70
2021/05/16 00:29:55;;;;;;;4.23;1.70;;;;;;;8.24;100.00;95382.47;5077015;28;20844;-70
2021/05/16 00:32:21;;;;;;;4.63;0.97;;;;;;;8.31;100.00;95371.06;5077056;28;20222;-71
2021/05/16 00:34:48;;;;;;;2.80;1.40;;;;;;;8.38;100.00;95371.94;5076893;28;20199;-70
2021/05/16 00:37:14;;;;;;;3.63;1.20;;;;;;;8.40;100.00;95369.13;5075388;28;20733;-70
2021/05/16 00:39:40;;;;;;;2.23;1.10;;;;;;;8.37;100.00;95365.06;5076835;28;20206;-70
2021/05/16 00:42:06;;;;;;;4.20;1.37;;;;;;;8.37;100.00;95365.06;5076914;28;20219;-70
2021/05/16 00:44:32;;;;;;;3.63;1.30;;;;;;;8.45;100.00;95359.69;5076684;28;20238;-71
2021/05/16 00:46:58;;;;;;;3.93;1.40;;;;;;;8.32;100.00;95362.19;5075964;28;20729;-70
2021/05/16 00:49:24;;;;;;;6.10;1.60;;;;;;;8.29;100.00;95361.75;5076847;28;20280;-70
2021/05/16 00:51:51;;;;;;;3.60;1.50;;;;;;;8.35;100.00;95359.19;5073649;28;20311;-70
2021/05/16 00:54:17;;;;;;;5.53;1.40;;;;;;;8.27;100.00;95353.25;5076595;28;20236;-70
2021/05/16 00:56:43;;;;;;;2.77;1.30;;;;;;;8.36;100.00;95352.13;5076314;28;20239;-70
2021/05/16 00:59:09;;;;;;;6.63;1.30;;;;;;;8.32;100.00;95351.69;5076536;28;20206;-70
2021/05/16 01:01:35;;;;;;;1.30;1.13;;;;;;;8.35;100.00;95340.00;5077074;28;20315;-70
2021/05/16 01:04:02;;;;;;;4.33;1.30;;;;;;;8.36;100.00;95341.63;5076866;28;20215;-70
2021/05/16 01:06:28;;;;;;;3.73;1.20;;;;;;;8.47;100.00;95335.91;5076012;28;20204;-71
2021/05/16 01:08:57;;;;;;;3.63;1.20;;;;;;;8.48;100.00;95343.59;5076107;28;20211;-70
2021/05/16 01:11:25;;;;;;;3.00;1.30;;;;;;;8.43;100.00;95338.09;5081369;28;20254;-70
2021/05/16 01:13:51;;;;;;;2.17;1.17;;;;;;;8.39;100.00;95336.00;5080485;28;20199;-70
2021/05/16 01:16:17;;;;;;;4.60;1.53;;;;;;;8.41;100.00;95347.13;5079762;28;20708;-70
2021/05/16 01:18:43;;;;;;;2.97;1.07;;;;;;;8.37;100.00;95338.81;5080098;28;20199;-70
2021/05/16 01:21:09;;;;;;;3.07;1.03;;;;;;;8.35;100.00;95335.59;5080599;28;20794;-71
2021/05/16 01:23:46;;;;;;;1.80;1.17;;;;;;;8.32;100.00;95340.38;5080256;28;20203;-70
2021/05/16 01:26:12;;;;;;;2.07;1.10;;;;;;;8.37;100.00;95340.66;5079531;28;20236;-70
2021/05/16 01:28:38;;;;;;;2.50;0.97;;;;;;;8.41;100.00;95336.66;5079981;28;20208;-71
2021/05/16 01:31:05;;;;;;;1.80;0.90;;;;;;;8.37;100.00;95332.75;5080497;28;20602;-70
2021/05/16 01:33:31;;;;;;;1.80;0.97;;;;;;;8.39;100.00;95330.75;5080278;28;20253;-70
2021/05/16 01:35:57;;;;;;;1.20;0.80;;;;;;;8.44;100.00;95339.72;5079395;28;20204;-70
2021/05/16 01:38:23;;;;;;;3.37;0.80;;;;;;;8.39;100.00;95330.75;5080317;28;20204;-70
2021/05/16 01:40:50;;;;;;;2.67;1.03;;;;;;;8.43;100.00;95324.97;5078708;28;20220;-71
2021/05/16 01:43:16;;;;;;;3.30;1.00;;;;;;;8.43;100.00;95324.97;5079210;28;20650;-71
2021/05/16 01:45:43;;;;;;;2.60;1.17;;;;;;;8.46;100.00;95326.41;5078535;28;20250;-70
2021/05/16 01:48:09;;;;;;;5.13;1.20;;;;;;;8.45;100.00;95320.31;5080049;28;20208;-71
2021/05/16 01:50:38;;;;;;;1.83;0.90;;;;;;;8.45;100.00;95322.16;5076242;28;20228;-71
2021/05/16 01:53:06;;;;;;;2.30;1.07;;;;;;;8.47;100.00;95317.53;5079764;28;20200;-71
2021/05/16 01:55:32;;;;;;;2.13;0.90;;;;;;;8.36;100.00;95321.44;5078898;28;20200;-70
2021/05/16 01:57:59;;;;;;;1.43;0.90;;;;;;;8.36;100.00;95318.81;5079669;28;20196;-70
2021/05/16 02:00:27;;;;;;;3.97;1.20;;;;;;;8.36;100.00;95320.63;5079181;28;20220;-71
2021/05/16 02:02:55;;;;;;;3.33;0.97;;;;;;;8.30;100.00;95313.50;5079109;28;20265;-71
2021/05/16 02:05:21;;;;;;;1.67;1.10;;;;;;;8.29;100.00;95317.94;5078713;28;20231;-71
2021/05/16 02:07:48;;;;;;;3.90;1.00;;;;;;;8.26;100.00;95320.94;5079694;28;20200;-71
2021/05/16 02:10:15;;;;;;;2.40;1.10;;;;;;;8.27;100.00;95312.06;5079089;28;20223;-71
2021/05/16 02:12:41;;;;;;;3.20;1.70;;;;;;;8.28;100.00;95313.69;5080037;28;21154;-71
2021/05/16 02:15:11;;;;;;;2.17;1.30;;;;;;;8.32;100.00;95309.69;5078715;28;20256;-70
2021/05/16 02:17:39;;;;;;;2.20;1.10;;;;;;;8.26;100.00;95314.88;5079178;28;20232;-70
2021/05/16 02:20:06;;;;;;;2.50;1.10;;;;;;;8.19;100.00;95314.78;5079096;28;20199;-70
2021/05/16 02:22:32;;;;;;;2.83;0.87;;;;;;;8.21;100.00;95318.06;5078517;28;20211;-70
2021/05/16 02:24:58;;;;;;;1.70;0.80;;;;;;;8.18;100.00;95309.72;5079196;28;20656;-71
2021/05/16 02:27:24;;;;;;;2.07;0.93;;;;;;;8.14;100.00;95311.09;5075105;28;20203;-71
2021/05/16 02:29:50;;;;;;;3.03;0.90;;;;;;;8.24;100.00;95315.06;5079827;28;20573;-71
2021/05/16 02:32:17;;;;;;;2.53;0.90;;;;;;;8.25;100.00;95303.56;5078814;28;20287;-70
2021/05/16 02:34:43;;;;;;;3.77;1.07;;;;;;;8.24;100.00;95301.94;5078475;28;20203;-70
2021/05/16 02:37:09;;;;;;;3.63;0.90;;;;;;;8.21;100.00;95304.94;5078055;28;20287;-70
2021/05/16 02:39:35;;;;;;;1.97;0.97;;;;;;;8.27;100.00;95311.25;5079093;28;20212;-71
2021/05/16 02:42:01;;;;;;;3.53;1.00;;;;;;;8.27;100.00;95321.75;5078387;28;20231;-71
2021/05/16 02:44:28;;;;;;;2.00;1.10;;;;;;;8.27;100.00;95317.28;5079018;28;20736;-71
2021/05/16 02:46:55;;;;;;;1.30;0.90;;;;;;;8.32;100.00;95320.19;5077701;28;20231;-70
2021/05/16 02:49:22;;;;;;;1.47;1.00;;;;;;;8.38;100.00;95313.41;5078831;28;20204;-70
2021/05/16 02:51:48;;;;;;;1.97;1.00;;;;;;;8.44;100.00;95312.63;5074461;28;20228;-71
2021/05/16 02:54:14;;;;;;;2.73;0.87;;;;;;;8.41;100.00;95315.66;5078916;28;20666;-70
2021/05/16 02:56:40;;;;;;;3.60;1.13;;;;;;;8.48;100.00;95319.97;5078047;28;20302;-71
2021/05/16 02:59:06;;;;;;;1.20;0.77;;;;;;;8.44;100.00;95313.47;5078447;28;20306;-71
2021/05/16 03:01:32;;;;;;;3.40;0.93;;;;;;;8.40;100.00;95311.38;5078737;28;20693;-70
2021/05/16 03:03:58;;;;;;;3.93;0.80;;;;;;;8.39;100.00;95305.34;5078431;28;20303;-71
2021/05/16 03:06:26;;;;;;;1.53;0.80;;;;;;;8.39;100.00;95307.13;5077692;28;20208;-70
2021/05/16 03:08:52;;;;;;;3.33;0.90;;;;;;;8.36;100.00;95312.75;5078018;28;20274;-70
2021/05/16 03:11:18;;;;;;;1.67;0.90;;;;;;;8.32;100.00;95304.44;5078300;28;20220;-71
2021/05/16 03:13:44;;;;;;;2.50;0.83;;;;;;;8.31;100.00;95313.34;5077847;28;20204;-71
2021/05/16 03:16:10;;;;;;;3.87;0.90;;;;;;;8.34;100.00;95312.13;5077842;28;20211;-71
2021/05/16 03:18:36;;;;;;;0.93;0.63;;;;;;;8.32;100.00;95311.50;5077706;28;20208;-71
2021/05/16 03:21:02;;;;;;;2.97;0.80;;;;;;;8.24;100.00;95315.06;5078243;28;20281;-71
2021/05/16 03:23:29;;;;;;;8.37;0.90;;;;;;;8.28;100.00;95308.44;5077608;28;20591;-71
2021/05/16 03:25:58;;;;;;;2.77;0.80;;;;;;;8.39;100.00;95318.47;5077203;28;20215;-71
2021/05/16 03:28:24;;;;;;;1.47;0.70;;;;;;;8.33;100.00;95311.31;5078215;28;20294;-71
2021/05/16 03:30:50;;;;;;;1.17;0.70;;;;;;;8.28;100.00;95303.19;5077547;28;20216;-71
2021/05/16 03:33:16;;;;;;;2.83;1.30;;;;;;;8.21;100.00;95304.94;5077136;28;20298;-71
2021/05/16 03:35:42;;;;;;;4.77;1.33;;;;;;;8.32;100.00;95303.63;5077469;28;20797;-70
2021/05/16 03:38:08;;;;;;;2.10;1.30;;;;;;;8.27;100.00;95312.06;5076800;28;20299;-70
2021/05/16 03:40:35;;;;;;;4.97;1.20;;;;;;;8.28;100.00;95307.63;5078234;28;20666;-70
2021/05/16 03:43:01;;;;;;;1.80;0.70;;;;;;;8.25;100.00;95305.34;5078468;28;20273;-72
2021/05/16 03:45:27;;;;;;;3.03;0.90;;;;;;;8.38;100.00;95305.53;5076241;28;20227;-70
2021/05/16 03:47:53;;;;;;;5.07;0.70;;;;;;;8.38;100.00;95303.72;5077629;28;20211;-70
2021/05/16 03:50:19;;;;;;;0.93;0.70;;;;;;;8.36;100.00;95304.88;5074334;28;20298;-71
2021/05/16 03:52:45;;;;;;;1.40;0.90;;;;;;;8.35;100.00;95303.25;5077315;28;20207;-70
2021/05/16 03:55:12;;;;;;;3.00;0.70;;;;;;;8.44;100.00;95310.84;5076304;28;20195;-70
2021/05/16 03:57:39;;;;;;;0.67;0.67;;;;;;;8.51;100.00;95309.91;5077491;28;20268;-70
2021/05/16 04:00:07;;;;;;;1.53;0.80;;;;;;;8.64;100.00;95319.72;5077327;28;20698;-71
2021/05/16 04:02:33;;;;;;;1.20;0.70;;;;;;;8.75;100.00;95306.91;5077450;28;20196;-71
2021/05/16 04:04:59;;;;;;;2.87;0.60;;;;;;;8.81;100.00;95315.84;5076753;28;20231;-71
2021/05/16 04:07:26;;;;;;;1.17;0.80;;;;;;;8.83;100.00;95304.13;5077136;28;20341;-70
2021/05/16 04:09:52;;;;;;;5.77;0.90;;;;;;;8.89;100.00;95305.22;5076976;28;20579;-71
2021/05/16 04:12:18;;;;;;;2.30;0.80;;;;;;;8.91;100.00;95309.28;5077555;28;20245;-71
2021/05/16 04:14:49;;;;;;;1.13;0.70;;;;;;;8.95;100.00;95307.06;5077046;28;20204;-71
2021/05/16 04:17:15;;;;;;;6.03;0.87;;;;;;;9.04;100.00;95306.75;5076340;28;20685;-70
2021/05/16 04:19:41;;;;;;;1.50;0.70;;;;;;;9.10;100.00;95306.00;5076874;28;20294;-71
2021/05/16 04:22:07;;;;;;;1.43;0.60;;;;;;;9.07;100.00;95306.38;5077533;28;20603;-71
2021/05/16 04:24:33;;;;;;;0.70;0.50;;;;;;;9.19;100.00;95303.03;5077004;28;20267;-70
2021/05/16 04:26:59;;;;;;;2.97;0.70;;;;;;;9.20;100.00;95299.41;5076189;28;20211;-70
2021/05/16 04:29:25;;;;;;;2.70;0.83;;;;;;;9.25;100.00;95304.09;5077022;28;20283;-70
2021/05/16 04:31:52;;;;;;;1.53;0.70;;;;;;;9.23;100.00;95298.22;5076982;28;20337;-71
2021/05/16 04:34:18;;;;;;;2.07;1.10;;;;;;;9.23;100.00;95299.03;5076977;28;20208;-71
2021/05/16 04:36:44;;;;;;;2.40;0.80;;;;;;;9.25;100.00;95309.34;5075762;28;20234;-71
2021/05/16 04:39:10;;;;;;;2.10;0.60;;;;;;;9.27;100.00;95310.78;5077426;28;20206;-70
2021/05/16 04:41:35;;;;;;;3.13;0.60;;;;;;;9.24;100.00;95307.69;5076182;28;20220;-71
2021/05/16 04:44:02;;;;;;;3.83;0.80;;;;;;;9.17;100.00;95320.00;5077397;28;21334;-70
2021/05/16 04:46:28;;;;;;;0.67;0.50;;;;;;;9.13;100.00;95318.75;5080758;28;20269;-70
2021/05/16 04:48:55;;;;;;;2.23;0.60;;;;;;;9.16;100.00;95308.69;5080709;28;20196;-71
2021/05/16 04:51:21;;;;;;;1.00;0.63;;;;;;;9.15;100.00;95316.72;5077038;28;20227;-71
2021/05/16 04:53:47;;;;;;;2.40;0.70;;;;;;;9.16;100.00;95310.47;5082338;28;20589;-70
2021/05/16 04:56:13;;;;;;;1.23;0.73;;;;;;;9.23;100.00;95306.09;5079756;28;20196;-71
2021/05/16 04:58:39;;;;;;;1.43;0.80;;;;;;;9.24;100.00;95302.44;5080765;28;20199;-70
2021/05/16 05:01:05;;;;;;;0.50;0.50;;;;;;;9.33;100.00;95306.56;5080523;28;20307;-70
2021/05/16 05:03:32;;;;;;;2.90;0.70;;;;;;;9.41;100.00;95309.06;5081327;28;20257;-70
2021/05/16 05:05:59;;;;;;;1.47;0.77;;;;;;;9.49;100.00;95312.34;5079357;28;20223;-70
2021/05/16 05:08:26;;;;;;;1.67;0.80;;;;;;;9.56;100.00;95307.13;5080451;28;20199;-70
2021/05/16 05:10:52;;;;;;;2.37;1.10;;;;;;;9.62;100.00;95308.97;5080213;28;20716;-70
2021/05/16 05:13:18;;;;;;;1.77;1.00;;;;;;;9.66;100.00;95304.97;5080245;28;20661;-70
2021/05/16 05:15:44;;;;;;;1.97;1.10;;;;;;;9.68;100.00;95310.84;5079802;28;20199;-70
2021/05/16 05:18:10;;;;;;;1.20;0.60;;;;;;;9.71;100.00;95306.81;5080534;28;20207;-69
2021/05/16 05:20:36;;;;;;;5.60;2.17;;;;;;;9.81;100.00;95304.66;5080437;28;20223;-69
2021/05/16 05:23:04;;;;;;;6.90;3.20;;;;;;;9.72;100.00;95305.81;5080165;28;20564;-70
2021/05/16 05:25:30;;;;;;;6.53;2.80;;;;;;;9.90;100.00;95306.13;5079779;28;20227;-69
2021/05/16 05:27:57;;;;;;;3.23;1.50;;;;;;;9.90;100.00;95303.50;5079666;28;20204;-70
2021/05/16 05:30:23;;;;;;;5.07;2.10;;;;;;;9.88;100.00;95308.13;5079701;28;20303;-70
2021/05/16 05:32:49;;;;;;;3.67;1.50;;;;;;;9.98;100.00;95298.09;5080168;28;20210;-70
2021/05/16 05:35:15;;;;;;;3.50;1.40;;;;;;;10.07;100.00;95306.59;5079898;28;20685;-70
2021/05/16 05:37:42;;;;;;;2.33;1.20;;;;;;;10.16;100.00;95310.72;5079906;28;20207;-70
2021/05/16 05:40:10;;;;;;;3.63;0.97;;;;;;;10.10;100.00;95300.97;5080330;28;20207;-69
2021/05/16 05:42:36;;;;;;;2.37;1.13;;;;;;;10.11;100.00;95308.66;5079515;28;20208;-70
2021/05/16 05:45:02;;;;;;;2.50;1.00;;;;;;;10.11;100.00;95308.66;5080027;28;20646;-70
2021/05/16 05:47:28;;;;;;;4.50;1.17;;;;;;;10.03;100.00;95313.28;5079542;28;20208;-69
2021/05/16 05:49:54;;;;;;;3.63;1.73;;;;;;;10.14;100.00;95307.47;5080015;28;20641;-69
2021/05/16 05:52:20;;;;;;;4.73;0.93;;;;;;;10.26;100.00;95306.72;5076031;28;20223;-70
2021/05/16 05:54:46;;;;;;;1.90;0.73;;;;;;;10.43;100.00;95308.78;5080275;28;20206;-70
2021/05/16 05:57:13;;;;;;;3.70;1.00;;;;;;;10.56;100.00;95314.06;5077634;28;20203;-70
2021/05/16 05:59:40;;;;;;;1.83;0.90;;;;;;;10.53;100.00;95313.69;5079415;28;20575;-69
2021/05/16 06:02:06;;;;;;;2.47;1.10;;;;;;;10.56;100.00;95314.06;5078923;28;20600;-70
2021/05/16 06:04:32;;;;;;;1.60;0.93;;;;;;;10.63;100.00;95312.28;5079382;28;20229;-69
2021/05/16 06:06:58;;;;;;;4.97;1.10;;;;;;;10.75;100.00;95308.03;5078763;28;20200;-70
2021/05/16 06:09:24;;;;;;;3.13;1.10;;;;;;;10.81;100.00;95311.72;5079441;28;20196;-70
2021/05/16 06:11:50;;;;;;;4.43;1.60;;;;;;;10.79;100.00;95313.72;5078577;28;20680;-71
2021/05/16 06:14:16;;;;;;;1.17;0.73;;;;;;;10.79;100.00;95314.53;5079687;28;20196;-70
2021/05/16 06:16:42;;;;;;;3.33;1.37;;;;;;;10.98;100.00;95309.31;5077998;28;20211;-70
2021/05/16 06:19:08;;;;;;;4.27;1.37;;;;;;;11.01;100.00;95319.44;5079315;28;21279;-70
2021/05/16 06:21:34;;;;;;;3.77;1.00;;;;;;;11.00;100.00;95324.91;5079478;28;20223;-69
2021/05/16 06:24:04;;;;;;;3.00;1.00;;;;;;;11.03;100.00;95317.38;5078732;28;20230;-70
2021/05/16 06:26:31;;;;;;;1.53;1.17;;;;;;;11.10;100.00;95317.41;5077505;28;20199;-70
2021/05/16 06:28:57;;;;;;;1.70;0.80;;;;;;;11.16;100.00;95316.59;5077483;28;20208;-69
2021/05/16 06:31:24;;;;;;;1.27;0.97;;;;;;;11.07;100.00;95326.53;5077984;28;20220;-70
2021/05/16 06:33:50;;;;;;;5.17;0.90;;;;;;;11.14;100.00;95322.06;5078187;28;21109;-70
2021/05/16 06:36:16;;;;;;;5.10;1.30;;;;;;;11.17;100.00;95319.03;5078604;28;20265;-71
2021/05/16 06:38:42;;;;;;;2.63;1.03;;;;;;;11.13;100.00;95328.34;5079010;28;20591;-70
2021/05/16 06:41:08;;;;;;;2.93;1.03;;;;;;;11.05;100.00;95335.66;5078632;28;20251;-70
2021/05/16 06:43:34;;;;;;;0.80;0.60;;;;;;;10.96;100.00;95328.97;5078366;28;20642;-70
2021/05/16 06:46:00;;;;;;;3.43;1.20;;;;;;;10.95;100.00;95325.50;5077936;28;20324;-70
2021/05/16 06:48:27;;;;;;;2.80;1.10;;;;;;;10.82;100.00;95329.13;5078666;28;20862;-69
2021/05/16 06:50:54;;;;;;;2.97;1.17;;;;;;;10.81;100.00;95327.53;5075774;28;20230;-70
2021/05/16 06:53:20;;;;;;;2.57;1.10;;;;;;;10.86;100.00;95328.53;5078387;28;20207;-71
2021/05/16 06:55:47;;;;;;;2.43;0.90;;;;;;;10.91;100.00;95338.47;5077755;28;20204;-72
2021/05/16 06:58:13;;;;;;;2.13;0.83;;;;;;;10.99;100.00;95331.19;5078036;28;21099;-70
2021/05/16 07:00:39;;;;;;;3.27;0.83;;;;;;;11.12;100.00;95333.84;5078698;28;20228;-70
2021/05/16 07:03:05;;;;;;;3.37;0.80;;;;;;;11.14;100.00;95329.97;5077869;28;20223;-70
2021/05/16 07:05:33;;;;;;;1.40;0.70;;;;;;;11.30;100.00;95324.31;5075535;28;20232;-70
2021/05/16 07:07:59;;;;;;;2.33;0.80;;;;;;;11.41;100.00;95328.97;5076016;28;20200;-70
2021/05/16 07:10:25;;;;;;;1.30;0.87;;;;;;;11.46;100.00;95333.66;5076983;28;20251;-71
2021/05/16 07:12:51;;;;;;;1.70;0.67;;;;;;;11.50;100.00;95335.69;5075776;28;20216;-71
2021/05/16 07:15:17;;;;;;;3.80;1.00;;;;;;;11.64;100.00;95332.03;5075855;28;20218;-70
2021/05/16 07:17:44;;;;;;;0.80;0.80;;;;;;;11.68;100.00;95330.59;5076841;28;20664;-70
2021/05/16 07:20:12;;;;;;;1.10;0.87;;;;;;;11.73;100.00;95326.31;5076518;28;20203;-70
2021/05/16 07:22:39;;;;;;;3.47;2.00;;;;;;;12.01;100.00;95339.28;5076348;28;20260;-70
2021/05/16 07:25:06;;;;;;;2.30;0.83;;;;;;;11.85;96.78;95323.84;5076621;28;20230;-70
2021/05/16 07:27:32;;;;;;;2.73;0.77;;;;;;;12.05;99.10;95332.56;5076230;28;20203;-70
2021/05/16 07:29:58;;;;;;;2.45;1.10;;;;;;;12.15;98.45;95323.16;5076529;28;20662;-70
2021/05/16 07:32:24;;;;;;;1.27;0.90;;;;;;;12.34;98.04;95331.00;5076818;28;20200;-71
2021/05/16 07:34:50;;;;;;;5.03;1.00;;;;;;;12.55;95.32;95321.97;5077054;28;20573;-70
2021/05/16 07:37:16;;;;;;;2.65;1.10;;;;;;;12.66;92.29;95322.13;5075434;28;20287;-70
2021/05/16 07:39:43;;;;;;;4.33;1.07;;;;;;;12.73;89.27;95322.09;5077467;28;20632;-71
2021/05/16 07:42:09;;;;;;;6.90;2.00;;;;;;;12.77;92.24;95326.75;5076242;28;20284;-70
2021/05/16 07:44:35;;;;;;;4.35;1.50;;;;;;;12.91;89.15;95321.19;5076231;28;20227;-70
2021/05/16 07:47:01;;;;;;;3.35;1.17;;;;;;;13.02;87.52;95325.00;5075723;28;20238;-70
2021/05/16 07:49:27;;;;;;;4.95;1.55;;;;;;;13.07;89.28;95318.06;5076345;28;20218;-70
2021/05/16 07:51:53;;;;;;;4.10;1.60;;;;;;;13.23;90.31;95308.78;5071639;28;20224;-70
2021/05/16 07:54:19;;;;;;;4.95;1.55;;;;;;;13.38;90.12;95309.25;5075853;28;20204;-70
2021/05/16 07:56:46;;;;;;;2.70;1.48;;;;;;;13.57;87.91;95314.41;5075672;28;20285;-71
2021/05/16 07:59:12;;;;;;;4.13;1.30;;;;;;;13.42;87.24;95311.25;5076357;28;20644;-71
2021/05/16 08:01:38;;;;;;;3.10;1.20;;;;;;;13.39;85.68;95312.50;5076011;28;20227;-70
2021/05/16 08:04:04;;;;;;;3.20;1.10;;;;;;;13.51;86.00;95316.06;5076094;28;20311;-70
2021/05/16 08:06:30;;;;;;;3.35;1.17;;;;;;;13.69;85.04;95318.75;5074782;28;20709;-71
2021/05/16 08:08:56;;;;;;;2.95;1.10;;;;;;;13.76;82.21;95313.38;5075741;28;20235;-70
2021/05/16 08:11:22;;;;;;;3.83;1.23;;;;;;;13.73;84.99;95313.84;5076107;28;20602;-70
2021/05/16 08:13:50;;;;;;;4.15;1.10;;;;;;;13.73;82.82;95305.88;5076196;28;20199;-70
2021/05/16 08:16:16;;;;;;;2.78;0.95;;;;;;;13.91;81.08;95312.00;5075231;28;20215;-71
2021/05/16 08:18:44;;;;;;;4.40;1.27;;;;;;;13.87;80.40;95307.38;5072391;28;20212;-70
2021/05/16 08:21:09;;;;;;;5.05;1.35;;;;;;;13.97;81.91;95316.44;5075580;28;20769;-72
2021/05/16 08:23:35;;;;;;;3.97;1.13;;;;;;;13.97;80.34;95305.84;5076039;28;20290;-70
2021/05/16 08:26:02;;;;;;;6.28;1.17;;;;;;;13.94;84.27;95305.47;5074778;28;20637;-71
2021/05/16 08:28:28;;;;;;;7.32;1.10;;;;;;;14.00;82.11;95308.03;5076196;28;20369;-70
2021/05/16 08:30:55;;;;;;;3.08;0.93;;;;;;;13.91;80.60;95305.91;5075673;28;20760;-70
2021/05/16 08:33:21;;;;;;;2.40;1.13;;;;;;;14.23;82.65;95313.53;5075188;28;20302;-71
2021/05/16 08:35:47;;;;;;;3.70;1.00;;;;;;;14.28;78.25;95316.31;5075198;28;20207;-71
2021/05/16 08:38:13;;;;;;;3.58;0.90;;;;;;;14.00;74.57;95315.97;5074673;28;20721;-70
2021/05/16 08:40:39;;;;;;;3.95;1.00;;;;;;;13.98;77.19;95318.06;5075650;28;20812;-71
2021/05/16 08:43:05;;;;;;;3.97;1.00;;;;;;;14.09;78.08;95317.34;5076032;28;20199;-70
2021/05/16 08:45:32;;;;;;;5.03;1.10;;;;;;;14.16;75.97;95300.34;5074607;28;20224;-71
2021/05/16 08:48:00;;;;;;;3.92;1.10;;;;;;;14.46;73.84;95295.09;5076185;28;20265;-70
2021/05/16 08:50:27;;;;;;;4.40;1.23;;;;;;;14.42;74.57;95294.75;5073080;28;20223;-71
2021/05/16 08:52:54;;;;;;;6.53;1.38;;;;;;;14.41;71.62;95301.09;5075003;28;20241;-71
2021/05/16 08:55:20;;;;;;;5.13;1.20;;;;;;;14.43;72.80;95298.22;5074623;28;20195;-70
2021/05/16 08:57:46;;;;;;;6.50;1.25;;;;;;;14.36;72.09;95294.84;5075640;28;20208;-70
2021/05/16 09:00:15;;;;;;;3.30;1.08;;;;;;;14.43;72.84;95291.06;5076197;28;20238;-70
2021/05/16 09:03:06;;;;;;;8.77;1.20;;;;;;;14.57;73.10;95297.00;5075577;28;20208;-70
2021/05/16 09:05:36;;;;;;;3.45;1.80;;;;;;;14.48;72.88;95290.41;5074532;28;20235;-70
2021/05/16 09:08:04;;;;;;;5.93;1.30;;;;;;;14.74;73.17;95289.03;5074838;28;20295;-70
2021/05/16 09:10:31;;;;;;;4.25;1.08;;;;;;;14.95;69.62;95291.16;5074586;28;20238;-71
2021/05/16 09:13:08;;;;;;;8.07;1.23;;;;;;;15.14;71.14;95291.91;5074729;28;20273;-70
2021/05/16 09:15:34;;;;;;;3.67;1.15;;;;;;;15.23;69.81;95283.41;5074123;28;20199;-72
2021/05/16 09:18:01;;;;;;;7.00;1.30;;;;;;;15.37;67.81;95287.47;5074418;28;20200;-71
2021/05/16 09:20:27;;;;;;;7.47;1.20;;;;;;;15.22;66.23;95292.41;5075607;28;20227;-70
2021/05/16 09:22:53;;;;;;;4.47;1.00;;;;;;;15.01;68.68;95286.81;5076272;28;20245;-72
2021/05/16 09:25:21;;;;;;;5.28;1.05;;;;;;;15.36;68.61;95291.16;5075586;28;20318;-72
2021/05/16 09:27:49;;;;;;;4.82;1.17;;;;;;;15.44;66.71;95293.47;5076046;28;20214;-71
2021/05/16 09:30:30;;;;;;;4.25;1.40;;;;;;;15.16;67.50;95282.69;5076274;28;20230;-72
2021/05/16 09:33:02;;;;;;;5.57;1.30;;;;;;;15.01;69.54;95277.00;5079923;28;20208;-71
2021/05/16 09:35:31;;;;;;;3.05;1.13;;;;;;;14.77;69.40;95271.84;5079720;28;20199;-71
2021/05/16 09:37:58;;;;;;;7.53;1.50;;;;;;;14.82;71.36;95275.44;5079546;28;20615;-70
2021/05/16 09:40:24;;;;;;;5.00;1.42;;;;;;;14.70;69.26;95269.28;5080047;28;20227;-71
2021/05/16 09:43:06;;;;;;;3.35;1.13;;;;;;;14.56;69.69;95285.63;5080156;28;20669;-71
2021/05/16 09:45:58;;;;;;;5.25;1.00;;;;;;;13.75;80.65;95286.13;5079264;28;20238;-71
2021/05/16 09:48:37;;;;;;;7.10;1.50;;;;;;;13.42;87.19;95301.47;5065239;28;20665;-71
2021/05/16 09:51:09;;;;;;;4.50;1.25;;;;;;;12.76;90.79;95303.97;5080500;28;20227;-70
2021/05/16 09:53:46;;;;;;;9.90;1.55;;;;;;;12.26;100.00;95296.13;5079755;28;20207;-70
2021/05/16 09:56:17;;;;;;;6.93;1.55;;;;;;;12.11;100.00;95282.34;5079599;28;20199;-70
2021/05/16 09:58:43;;;;;;;9.10;1.45;;;;;;;11.97;100.00;95286.06;5079546;28;20254;-70
2021/05/16 10:01:09;;;;;;;4.35;1.15;;;;;;;11.85;100.00;95297.47;5077856;28;20251;-70
2021/05/16 10:03:36;;;;;;;3.97;1.20;;;;;;;11.80;100.00;95302.53;5079424;28;20210;-71
2021/05/16 10:06:03;;;;;;;4.13;1.83;;;;;;;11.82;100.00;95314.53;5079558;28;20223;-70
2021/05/16 10:08:30;;;;;;;5.30;1.30;;;;;;;11.64;98.50;95324.09;5078911;28;20759;-70
2021/05/16 10:10:57;;;;;;;5.77;1.57;;;;;;;11.57;100.00;95307.50;5079657;28;20734;-70
2021/05/16 10:13:27;;;;;;;4.53;1.80;;;;;;;11.64;100.00;95295.09;5079291;28;20216;-70
2021/05/16 10:15:55;;;;;;;6.97;1.70;;;;;;;11.85;100.00;95287.72;5078883;28;20199;-70
2021/05/16 10:18:22;;;;;;;5.00;1.77;;;;;;;12.38;100.00;95283.88;5079142;28;20208;-70
2021/05/16 10:20:49;;;;;;;5.47;1.20;;;;;;;12.75;100.00;95286.50;5079679;28;20235;-70
2021/05/16 10:23:31;;;;;;;5.40;1.50;;;;;;;13.26;100.00;95268.66;5078864;28;20196;-70
2021/05/16 10:26:15;;;;;;;5.70;1.40;;;;;;;13.61;100.00;95260.78;5078834;28;20224;-70
2021/05/16 10:28:58;;;;;;;5.07;1.50;;;;;;;13.97;100.00;95258.16;5078273;28;20208;-70
2021/05/16 10:31:51;;;;;;;4.20;1.80;;;;;;;14.43;100.00;95248.66;5078665;28;20220;-70
2021/05/16 10:34:39;;;;;;;4.70;1.20;;;;;;;14.88;100.00;95245.38;5078416;28;20203;-70
2021/05/16 10:37:08;;;;;;;3.28;0.80;;;;;;;14.91;87.17;95231.63;5077953;28;21069;-72
2021/05/16 10:39:48;;;;;;;7.85;1.27;;;;;;;15.03;87.79;95226.34;5078752;28;20216;-70
2021/05/16 10:42:16;;;;;;;5.43;1.17;;;;;;;15.06;87.79;95223.22;5077968;28;20227;-70
2021/05/16 10:45:01;;;;;;;4.45;1.20;;;;;;;15.36;89.47;95219.50;5078579;28;20234;-70
2021/05/16 10:47:50;;;;;;;5.20;1.48;;;;;;;15.54;84.77;95206.94;5078733;28;20208;-70
2021/05/16 10:50:37;;;;;;;5.82;1.50;;;;;;;15.77;83.66;95198.94;5077260;28;20266;-71
2021/05/16 10:53:06;;;;;;;6.25;1.02;;;;;;;16.00;80.14;95197.03;5078462;28;20865;-70
2021/05/16 10:55:36;;;;;;;3.63;1.55;;;;;;;16.11;77.35;95195.38;5076533;28;20200;-70
2021/05/16 10:58:04;;;;;;;2.08;1.20;;;;;;;16.48;78.09;95187.66;5079553;28;20211;-70
2021/05/16 11:00:32;;;;;;;4.95;1.15;;;;;;;16.54;74.43;95188.56;5077711;28;20276;-71
2021/05/16 11:03:03;;;;;;;4.32;1.23;;;;;;;16.35;69.62;95187.13;5078292;28;20231;-71
2021/05/16 11:05:54;;;;;;;5.30;1.42;;;;;;;16.96;68.67;95192.50;5077591;28;20219;-71
2021/05/16 11:09:12;;;;;;;2.30;0.77;;;;;;;16.85;71.68;95188.88;5078016;28;20204;-71
2021/05/16 11:12:00;;;;;;;4.60;1.00;;;;;;;17.28;74.83;95181.88;5078202;28;20231;-71
2021/05/16 11:14:31;;;;;;;3.53;0.93;;;;;;;17.60;68.79;95172.22;5078202;28;20199;-71
2021/05/16 11:17:00;;;;;;;9.55;1.10;;;;;;;17.62;63.25;95172.00;5077432;28;20681;-71
2021/05/16 11:19:29;;;;;;;2.35;0.82;;;;;;;17.01;64.06;95163.31;5078307;28;20265;-70
2021/05/16 11:21:56;;;;;;;4.85;1.00;;;;;;;16.78;66.12;95156.25;5077822;28;20223;-70
2021/05/16 11:24:36;;;;;;;3.20;1.00;;;;;;;17.43;65.37;95147.47;5078382;28;20208;-71
2021/05/16 11:27:13;;;;;;;5.18;1.10;;;;;;;18.31;66.83;95154.25;5076890;28;20997;-70
2021/05/16 11:29:39;;;;;;;4.18;0.85;;;;;;;18.32;57.91;95147.84;5078677;28;20203;-71
2021/05/16 11:32:06;;;;;;;1.90;0.90;;;;;;;18.03;57.78;95142.94;5077447;28;20223;-70
2021/05/16 11:34:32;;;;;;;2.53;0.90;;;;;;;17.63;59.31;95137.13;5077701;28;20200;-71